createdAt,value
2019-02-04T22:06:36.103Z,-0.59
2019-02-04T22:09:24.265Z,-0.57
2019-02-04T22:12:12.395Z,-0.59
2019-02-04T22:15:00.486Z,-0.53
2019-02-04T22:17:49.006Z,-0.68
2019-02-04T22:20:36.892Z,-0.67
2019-02-04T22:23:26.127Z,-0.67
2019-02-04T22:26:14.729Z,-0.70
2019-02-04T22:29:02.810Z,-0.69
2019-02-04T22:31:50.999Z,-0.95
2019-02-04T22:34:39.221Z,-1.06
2019-02-04T22:37:27.601Z,-1.17
2019-02-04T22:40:23.688Z,-1.11
2019-02-04T22:43:12.050Z,-0.83
2019-02-04T22:45:59.762Z,-0.79
2019-02-04T22:48:47.684Z,-0.60
2019-02-04T22:51:35.763Z,-0.60
2019-02-04T22:54:23.668Z,-0.77
2019-02-04T22:57:11.340Z,-0.63
2019-02-04T22:59:59.429Z,-0.72
2019-02-04T23:02:47.561Z,-0.74
2019-02-04T23:05:35.693Z,-0.69
2019-02-04T23:08:23.528Z,-0.70
2019-02-04T23:11:11.049Z,-0.70
2019-02-04T23:13:58.918Z,-0.75
2019-02-04T23:16:46.649Z,-0.72
2019-02-04T23:19:34.815Z,-0.70
2019-02-04T23:22:22.770Z,-0.65
2019-02-04T23:25:10.304Z,-0.71
2019-02-04T23:27:58.319Z,-0.72
2019-02-04T23:30:46.263Z,-0.77
2019-02-04T23:33:34.506Z,-0.75
2019-02-04T23:36:22.332Z,-0.69
2019-02-04T23:39:11.127Z,-0.83
2019-02-04T23:41:58.938Z,-0.82
2019-02-04T23:44:46.561Z,-0.85
2019-02-04T23:47:34.542Z,-0.94
2019-02-04T23:50:22.614Z,-0.92
2019-02-04T23:53:10.418Z,-0.96
2019-02-04T23:55:58.546Z,-0.80
2019-02-04T23:58:46.779Z,-0.81
